sensor_id;sensor_type;location;lat;lon;timestamp;pressure;altitude;pressure_sealevel;temperature;humidity
24558;BME280;12726;49.148;8.582;2023-03-20T00:01:27;100644.78;;;9.15;100.00
24558;BME280;12726;49.148;8.582;2023-03-20T00:04:13;100651.13;;;9.07;100.00
24558;BME280;12726;49.148;8.582;2023-03-20T00:06:59;100652.78;;;9.08;100.00
24558;BME280;12726;49.148;8.582;2023-03-20T00:09:48;100647.38;;;9.01;100.00
24558;BME280;12726;49.148;8.582;2023-03-20T00:12:34;100650.09;;;9.08;100.00
24558;BME280;12726;49.148;8.582;2023-03-20T00:15:26;100653.19;;;9.05;100.00
24558;BME280;12726;49.148;8.582;2023-03-20T00:18:14;100660.25;;;9.13;100.00
24558;BME280;12726;49.148;8.582;2023-03-20T00:21:01;100659.00;;;9.09;100.00
24558;BME280;12726;49.148;8.582;2023-03-20T00:23:46;100662.72;;;9.08;100.00
24558;BME280;12726;49.148;8.582;2023-03-20T00:26:35;100654.50;;;9.16;100.00
24558;BME280;12726;49.148;8.582;2023-03-20T00:29:22;100658.41;;;9.13;100.00
24558;BME280;12726;49.148;8.582;2023-03-20T00:32:11;100659.81;;;9.09;100.00
24558;BME280;12726;49.148;8.582;2023-03-20T00:34:57;100646.13;;;9.04;100.00
24558;BME280;12726;49.148;8.582;2023-03-20T00:37:42;100658.78;;;9.10;100.00
24558;BME280;12726;49.148;8.582;2023-03-20T00:40:29;100657.72;;;9.04;100.00
24558;BME280;12726;49.148;8.582;2023-03-20T00:43:17;100659.16;;;9.00;100.00
24558;BME280;12726;49.148;8.582;2023-03-20T00:46:02;100651.97;;;9.08;100.00
24558;BME280;12726;49.148;8.582;2023-03-20T00:48:47;100654.84;;;9.06;100.00
24558;BME280;12726;49.148;8.582;2023-03-20T00:51:33;100656.09;;;9.10;100.00
24558;BME280;12726;49.148;8.582;2023-03-20T00:54:19;100658.81;;;9.17;100.00
24558;BME280;12726;49.148;8.582;2023-03-20T00:57:06;100653.22;;;9.12;100.00
24558;BME280;12726;49.148;8.582;2023-03-20T00:59:56;100661.28;;;9.12;100.00
24558;BME280;12726;49.148;8.582;2023-03-20T01:02:44;100659.22;;;9.14;100.00
24558;BME280;12726;49.148;8.582;2023-03-20T01:05:30;100668.94;;;9.15;100.00
24558;BME280;12726;49.148;8.582;2023-03-20T01:08:19;100662.75;;;9.14;100.00
24558;BME280;12726;49.148;8.582;2023-03-20T01:11:07;100658.78;;;9.10;100.00
24558;BME280;12726;49.148;8.582;2023-03-20T01:13:54;100661.28;;;9.12;100.00
24558;BME280;12726;49.148;8.582;2023-03-20T01:16:41;100664.56;;;9.07;100.00
24558;BME280;12726;49.148;8.582;2023-03-20T01:19:26;100656.69;;;9.06;100.00
24558;BME280;12726;49.148;8.582;2023-03-20T01:22:11;100657.38;;;9.14;100.00
24558;BME280;12726;49.148;8.582;2023-03-20T01:24:57;100668.50;;;9.11;100.00
24558;BME280;12726;49.148;8.582;2023-03-20T01:27:44;100662.91;;;9.06;100.00
24558;BME280;12726;49.148;8.582;2023-03-20T01:30:31;100653.81;;;9.07;100.00
24558;BME280;12726;49.148;8.582;2023-03-20T01:33:19;100668.88;;;9.01;100.00
24558;BME280;12726;49.148;8.582;2023-03-20T01:36:07;100656.84;;;8.97;100.00
24558;BME280;12726;49.148;8.582;2023-03-20T01:38:56;100662.84;;;8.99;100.00
24558;BME280;12726;49.148;8.582;2023-03-20T01:41:43;100668.06;;;9.08;100.00
24558;BME280;12726;49.148;8.582;2023-03-20T01:44:29;100671.00;;;9.13;100.00
24558;BME280;12726;49.148;8.582;2023-03-20T01:47:17;100668.06;;;9.08;100.00
24558;BME280;12726;49.148;8.582;2023-03-20T01:50:27;100675.72;;;9.11;100.00
24558;BME280;12726;49.148;8.582;2023-03-20T01:53:17;100677.16;;;9.07;100.00
24558;BME280;12726;49.148;8.582;2023-03-20T01:56:05;100680.44;;;9.02;100.00
24558;BME280;12726;49.148;8.582;2023-03-20T01:58:55;100674.84;;;9.03;100.00
24558;BME280;12726;49.148;8.582;2023-03-20T02:01:43;100668.69;;;9.10;100.00
24558;BME280;12726;49.148;8.582;2023-03-20T02:04:33;100686.03;;;9.07;100.00
24558;BME280;12726;49.148;8.582;2023-03-20T02:07:22;100684.81;;;9.10;100.00
24558;BME280;12726;49.148;8.582;2023-03-20T02:10:11;100682.13;;;9.10;100.00
24558;BME280;12726;49.148;8.582;2023-03-20T02:12:58;100693.50;;;9.12;100.00
24558;BME280;12726;49.148;8.582;2023-03-20T02:15:54;100687.50;;;9.10;100.00
24558;BME280;12726;49.148;8.582;2023-03-20T02:18:42;100694.28;;;9.06;100.00
24558;BME280;12726;49.148;8.582;2023-03-20T02:21:55;100695.31;;;9.04;100.00
24558;BME280;12726;49.148;8.582;2023-03-20T02:32:25;100681.94;;;9.11;100.00
24558;BME280;12726;49.148;8.582;2023-03-20T02:35:52;100681.09;;;9.11;100.00
24558;BME280;12726;49.148;8.582;2023-03-20T02:41:53;100692.25;;;9.08;100.00
24558;BME280;12726;49.148;8.582;2023-03-20T02:44:45;100689.97;;;9.11;100.00
24558;BME280;12726;49.148;8.582;2023-03-20T02:47:36;100694.09;;;9.07;100.00
24558;BME280;12726;49.148;8.582;2023-03-20T02:50:32;100683.78;;;9.11;100.00
24558;BME280;12726;49.148;8.582;2023-03-20T02:53:25;100687.06;;;9.06;100.00
24558;BME280;12726;49.148;8.582;2023-03-20T02:56:21;100684.19;;;9.08;100.00
24558;BME280;12726;49.148;8.582;2023-03-20T02:59:16;100696.16;;;9.05;100.00
24558;BME280;12726;49.148;8.582;2023-03-20T03:02:07;100693.28;;;9.07;100.00
24558;BME280;12726;49.148;8.582;2023-03-20T03:04:57;100685.03;;;9.08;100.00
24558;BME280;12726;49.148;8.582;2023-03-20T03:07:49;100685.22;;;9.07;100.00
24558;BME280;12726;49.148;8.582;2023-03-20T03:10:37;100685.84;;;9.09;100.00
24558;BME280;12726;49.148;8.582;2023-03-20T03:13:28;100690.78;;;9.05;100.00
24558;BME280;12726;49.148;8.582;2023-03-20T03:16:18;100684.56;;;9.04;100.00
24558;BME280;12726;49.148;8.582;2023-03-20T03:19:07;100688.53;;;9.09;100.00
24558;BME280;12726;49.148;8.582;2023-03-20T03:21:53;100666.84;;;9.10;100.00
24558;BME280;12726;49.148;8.582;2023-03-20T03:24:42;100689.38;;;9.09;100.00
24558;BME280;12726;49.148;8.582;2023-03-20T03:27:32;100701.13;;;9.08;100.00
24558;BME280;12726;49.148;8.582;2023-03-20T03:30:24;100702.34;;;9.06;100.00
24558;BME280;12726;49.148;8.582;2023-03-20T03:33:13;100703.13;;;8.99;100.00
24558;BME280;12726;49.148;8.582;2023-03-20T03:36:07;100706.47;;;9.01;100.00
24558;BME280;12726;49.148;8.582;2023-03-20T03:38:58;100698.41;;;9.01;100.00
24558;BME280;12726;49.148;8.582;2023-03-20T03:41:48;100716.59;;;9.06;100.00
24558;BME280;12726;49.148;8.582;2023-03-20T03:44:40;100703.56;;;9.03;100.00
24558;BME280;12726;49.148;8.582;2023-03-20T03:47:35;100701.28;;;9.00;100.00
24558;BME280;12726;49.148;8.582;2023-03-20T03:50:24;100693.59;;;8.97;100.00
24558;BME280;12726;49.148;8.582;2023-03-20T03:53:14;100700.25;;;9.01;100.00
24558;BME280;12726;49.148;8.582;2023-03-20T03:56:05;100683.88;;;8.96;100.00
24558;BME280;12726;49.148;8.582;2023-03-20T03:58:55;100689.25;;;8.96;100.00
24558;BME280;12726;49.148;8.582;2023-03-20T04:01:41;100691.50;;;8.92;100.00
24558;BME280;12726;49.148;8.582;2023-03-20T04:04:30;100684.84;;;8.88;100.00
24558;BME280;12726;49.148;8.582;2023-03-20T04:07:16;100693.13;;;8.87;100.00
24558;BME280;12726;49.148;8.582;2023-03-20T04:10:02;100698.69;;;8.85;100.00
24558;BME280;12726;49.148;8.582;2023-03-20T04:12:47;100696.84;;;8.86;100.00
24558;BME280;12726;49.148;8.582;2023-03-20T04:15:32;100698.88;;;8.84;100.00
24558;BME280;12726;49.148;8.582;2023-03-20T04:18:18;100708.13;;;8.81;100.00
24558;BME280;12726;49.148;8.582;2023-03-20T04:21:06;100718.88;;;8.81;100.00
24558;BME280;12726;49.148;8.582;2023-03-20T04:23:51;100718.50;;;8.84;100.00
24558;BME280;12726;49.148;8.582;2023-03-20T04:26:36;100727.75;;;8.82;100.00
24558;BME280;12726;49.148;8.582;2023-03-20T04:29:22;100730.44;;;8.82;100.00
24558;BME280;12726;49.148;8.582;2023-03-20T04:32:08;100729.59;;;8.81;100.00
24558;BME280;12726;49.148;8.582;2023-03-20T04:34:53;100732.94;;;8.83;100.00
24558;BME280;12726;49.148;8.582;2023-03-20T04:37:40;100737.47;;;8.83;100.00
24558;BME280;12726;49.148;8.582;2023-03-20T04:40:25;100737.75;;;8.88;100.00
24558;BME280;12726;49.148;8.582;2023-03-20T04:43:11;100744.13;;;8.87;100.00
24558;BME280;12726;49.148;8.582;2023-03-20T04:45:57;100742.06;;;8.89;100.00
24558;BME280;12726;49.148;8.582;2023-03-20T04:48:42;100740.69;;;8.93;100.00
24558;BME280;12726;49.148;8.582;2023-03-20T04:51:27;100733.63;;;8.92;100.00
24558;BME280;12726;49.148;8.582;2023-03-20T04:54:14;100738.19;;;8.91;100.00
24558;BME280;12726;49.148;8.582;2023-03-20T04:56:59;100725.78;;;8.90;100.00
24558;BME280;12726;49.148;8.582;2023-03-20T04:59:45;100728.44;;;8.90;100.00
24558;BME280;12726;49.148;8.582;2023-03-20T05:02:31;100725.13;;;8.88;100.00
24558;BME280;12726;49.148;8.582;2023-03-20T05:05:17;100728.44;;;8.90;100.00
24558;BME280;12726;49.148;8.582;2023-03-20T05:08:02;100727.19;;;8.86;100.00
24558;BME280;12726;49.148;8.582;2023-03-20T05:10:49;100730.66;;;8.80;100.00
24558;BME280;12726;49.148;8.582;2023-03-20T05:16:30;100741.22;;;8.88;100.00
24558;BME280;12726;49.148;8.582;2023-03-20T05:19:16;100744.69;;;8.82;100.00
24558;BME280;12726;49.148;8.582;2023-03-20T05:22:01;100746.00;;;8.86;100.00
24558;BME280;12726;49.148;8.582;2023-03-20T05:24:46;100750.34;;;8.87;100.00
24558;BME280;12726;49.148;8.582;2023-03-20T05:27:33;100745.16;;;8.86;100.00
24558;BME280;12726;49.148;8.582;2023-03-20T05:30:19;100737.94;;;8.86;100.00
24558;BME280;12726;49.148;8.582;2023-03-20T05:33:04;100746.38;;;8.83;100.00
24558;BME280;12726;49.148;8.582;2023-03-20T05:35:50;100745.34;;;8.84;100.00
24558;BME280;12726;49.148;8.582;2023-03-20T05:38:36;100738.50;;;8.82;100.00
24558;BME280;12726;49.148;8.582;2023-03-20T05:41:24;100750.06;;;8.82;100.00
24558;BME280;12726;49.148;8.582;2023-03-20T05:44:11;100758.78;;;8.84;100.00
24558;BME280;12726;49.148;8.582;2023-03-20T05:46:56;100760.03;;;8.88;100.00
24558;BME280;12726;49.148;8.582;2023-03-20T05:49:42;100771.88;;;8.94;100.00
24558;BME280;12726;49.148;8.582;2023-03-20T05:52:27;100766.69;;;8.92;100.00
24558;BME280;12726;49.148;8.582;2023-03-20T05:55:13;100766.50;;;8.94;100.00
24558;BME280;12726;49.148;8.582;2023-03-20T05:57:58;100766.94;;;8.97;100.00
24558;BME280;12726;49.148;8.582;2023-03-20T06:00:45;100765.09;;;8.98;100.00
24558;BME280;12726;49.148;8.582;2023-03-20T06:03:30;100754.41;;;9.04;100.00
24558;BME280;12726;49.148;8.582;2023-03-20T06:06:16;100754.91;;;9.15;100.00
24558;BME280;12726;49.148;8.582;2023-03-20T06:09:02;100752.06;;;9.23;100.00
24558;BME280;12726;49.148;8.582;2023-03-20T06:11:47;100749.88;;;9.33;100.00
24558;BME280;12726;49.148;8.582;2023-03-20T06:14:32;100757.34;;;9.37;100.00
24558;BME280;12726;49.148;8.582;2023-03-20T06:17:19;100746.25;;;9.47;100.00
24558;BME280;12726;49.148;8.582;2023-03-20T06:20:06;100752.50;;;9.54;100.00
24558;BME280;12726;49.148;8.582;2023-03-20T06:22:52;100757.06;;;9.60;100.00
24558;BME280;12726;49.148;8.582;2023-03-20T06:25:38;100760.22;;;9.64;100.00
24558;BME280;12726;49.148;8.582;2023-03-20T06:28:23;100767.28;;;9.71;100.00
24558;BME280;12726;49.148;8.582;2023-03-20T06:31:09;100773.47;;;9.65;99.98
24558;BME280;12726;49.148;8.582;2023-03-20T06:33:56;100775.47;;;9.57;100.00
24558;BME280;12726;49.148;8.582;2023-03-20T06:36:41;100798.13;;;9.48;100.00
24558;BME280;12726;49.148;8.582;2023-03-20T06:39:30;100793.72;;;9.40;100.00
24558;BME280;12726;49.148;8.582;2023-03-20T06:42:15;100794.31;;;9.35;100.00
24558;BME280;12726;49.148;8.582;2023-03-20T06:45:01;100797.34;;;9.26;100.00
24558;BME280;12726;49.148;8.582;2023-03-20T06:47:47;100800.69;;;9.28;100.00
24558;BME280;12726;49.148;8.582;2023-03-20T06:50:33;100801.50;;;9.28;100.00
24558;BME280;12726;49.148;8.582;2023-03-20T06:53:19;100801.69;;;9.27;100.00
24558;BME280;12726;49.148;8.582;2023-03-20T06:56:05;100804.19;;;9.28;100.00
24558;BME280;12726;49.148;8.582;2023-03-20T06:58:51;100808.56;;;9.29;100.00
24558;BME280;12726;49.148;8.582;2023-03-20T07:01:36;100809.81;;;9.33;100.00
24558;BME280;12726;49.148;8.582;2023-03-20T07:04:21;100813.56;;;9.39;100.00
24558;BME280;12726;49.148;8.582;2023-03-20T07:07:11;100822.91;;;9.43;100.00
24558;BME280;12726;49.148;8.582;2023-03-20T07:09:57;100813.00;;;9.43;100.00
24558;BME280;12726;49.148;8.582;2023-03-20T07:12:42;100819.00;;;9.46;100.00
24558;BME280;12726;49.148;8.582;2023-03-20T07:15:27;100826.50;;;9.50;100.00
24558;BME280;12726;49.148;8.582;2023-03-20T07:18:13;100826.06;;;9.53;100.00
24558;BME280;12726;49.148;8.582;2023-03-20T07:21:01;100826.22;;;9.45;100.00
24558;BME280;12726;49.148;8.582;2023-03-20T07:23:50;100820.94;;;9.52;100.00
24558;BME280;12726;49.148;8.582;2023-03-20T07:26:36;100818.81;;;9.47;100.00
24558;BME280;12726;49.148;8.582;2023-03-20T07:29:21;100820.84;;;9.45;100.00
24558;BME280;12726;49.148;8.582;2023-03-20T07:32:07;100823.34;;;9.47;100.00
24558;BME280;12726;49.148;8.582;2023-03-20T07:34:52;100824.97;;;9.41;100.00
24558;BME280;12726;49.148;8.582;2023-03-20T07:37:40;100812.78;;;9.45;100.00
24558;BME280;12726;49.148;8.582;2023-03-20T07:40:27;100819.22;;;9.44;100.00
24558;BME280;12726;49.148;8.582;2023-03-20T07:43:12;100820.66;;;9.47;100.00
24558;BME280;12726;49.148;8.582;2023-03-20T07:45:57;100816.13;;;9.47;100.00
24558;BME280;12726;49.148;8.582;2023-03-20T07:48:45;100810.78;;;9.54;100.00
24558;BME280;12726;49.148;8.582;2023-03-20T07:51:30;100809.81;;;9.61;100.00
24558;BME280;12726;49.148;8.582;2023-03-20T07:54:16;100806.13;;;9.69;100.00
24558;BME280;12726;49.148;8.582;2023-03-20T07:57:03;100812.59;;;9.74;100.00
24558;BME280;12726;49.148;8.582;2023-03-20T07:59:48;100823.81;;;9.85;99.39
24558;BME280;12726;49.148;8.582;2023-03-20T08:02:34;100816.84;;;9.97;99.08
24558;BME280;12726;49.148;8.582;2023-03-20T08:05:22;100809.47;;;10.05;97.51
24558;BME280;12726;49.148;8.582;2023-03-20T08:08:07;100815.84;;;9.98;97.60
24558;BME280;12726;49.148;8.582;2023-03-20T08:10:53;100809.63;;;9.97;97.81
24558;BME280;12726;49.148;8.582;2023-03-20T08:13:39;100806.75;;;9.99;97.98
24558;BME280;12726;49.148;8.582;2023-03-20T08:16:25;100823.09;;;10.04;97.84
24558;BME280;12726;49.148;8.582;2023-03-20T08:19:10;100822.09;;;10.11;96.72
24558;BME280;12726;49.148;8.582;2023-03-20T08:21:56;100822.31;;;10.10;96.58
24558;BME280;12726;49.148;8.582;2023-03-20T08:24:41;100828.13;;;10.13;97.10
24558;BME280;12726;49.148;8.582;2023-03-20T08:27:26;100832.75;;;10.19;94.98
24558;BME280;12726;49.148;8.582;2023-03-20T08:30:14;100829.78;;;10.14;95.62
24558;BME280;12726;49.148;8.582;2023-03-20T08:32:59;100837.28;;;10.19;95.12
24558;BME280;12726;49.148;8.582;2023-03-20T08:35:54;100838.34;;;10.25;94.17
24558;BME280;12726;49.148;8.582;2023-03-20T08:38:40;100836.50;;;10.25;94.91
24558;BME280;12726;49.148;8.582;2023-03-20T08:41:28;100838.22;;;10.39;92.56
24558;BME280;12726;49.148;8.582;2023-03-20T08:44:14;100842.56;;;10.40;91.85
24558;BME280;12726;49.148;8.582;2023-03-20T08:47:00;100843.41;;;10.47;91.84
24558;BME280;12726;49.148;8.582;2023-03-20T08:49:46;100846.59;;;10.57;91.20
24558;BME280;12726;49.148;8.582;2023-03-20T08:52:31;100845.97;;;10.69;89.75
24558;BME280;12726;49.148;8.582;2023-03-20T08:55:17;100846.03;;;10.82;90.52
24558;BME280;12726;49.148;8.582;2023-03-20T08:58:05;100852.44;;;10.81;88.88
24558;BME280;12726;49.148;8.582;2023-03-20T09:00:51;100849.97;;;10.86;88.97
24558;BME280;12726;49.148;8.582;2023-03-20T09:03:37;100841.06;;;10.85;87.82
24558;BME280;12726;49.148;8.582;2023-03-20T09:06:23;100846.84;;;10.82;88.25
24558;BME280;12726;49.148;8.582;2023-03-20T09:09:09;100838.94;;;10.74;88.44
24558;BME280;12726;49.148;8.582;2023-03-20T09:11:54;100857.25;;;10.92;88.48
24558;BME280;12726;49.148;8.582;2023-03-20T09:14:40;100863.03;;;10.89;88.28
24558;BME280;12726;49.148;8.582;2023-03-20T09:17:26;100866.56;;;10.89;88.23
24558;BME280;12726;49.148;8.582;2023-03-20T09:20:12;100874.44;;;10.97;87.96
24558;BME280;12726;49.148;8.582;2023-03-20T09:22:58;100878.00;;;11.05;87.89
24558;BME280;12726;49.148;8.582;2023-03-20T09:25:43;100880.06;;;11.09;87.04
24558;BME280;12726;49.148;8.582;2023-03-20T09:28:28;100876.31;;;11.04;86.76
24558;BME280;12726;49.148;8.582;2023-03-20T09:31:14;100887.75;;;11.06;86.41
24558;BME280;12726;49.148;8.582;2023-03-20T09:33:59;100876.97;;;11.06;86.70
24558;BME280;12726;49.148;8.582;2023-03-20T09:36:46;100890.25;;;11.07;87.39
24558;BME280;12726;49.148;8.582;2023-03-20T09:39:32;100893.75;;;11.01;86.14
24558;BME280;12726;49.148;8.582;2023-03-20T09:42:34;100897.03;;;10.96;87.28
24558;BME280;12726;49.148;8.582;2023-03-20T09:45:32;100898.88;;;10.89;88.15
24558;BME280;12726;49.148;8.582;2023-03-20T09:48:25;100900.94;;;10.87;87.59
24558;BME280;12726;49.148;8.582;2023-03-20T09:51:18;100902.22;;;10.91;88.09
24558;BME280;12726;49.148;8.582;2023-03-20T09:54:09;100904.28;;;10.96;85.59
24558;BME280;12726;49.148;8.582;2023-03-20T09:56:57;100902.84;;;10.93;85.12
24558;BME280;12726;49.148;8.582;2023-03-20T09:59:43;100895.19;;;11.04;84.77
24558;BME280;12726;49.148;8.582;2023-03-20T10:02:36;100905.81;;;11.25;84.81
24558;BME280;12726;49.148;8.582;2023-03-20T10:05:27;100900.44;;;11.38;83.34
24558;BME280;12726;49.148;8.582;2023-03-20T10:08:14;100902.94;;;11.59;84.33
24558;BME280;12726;49.148;8.582;2023-03-20T10:11:09;100899.41;;;11.65;81.02
24558;BME280;12726;49.148;8.582;2023-03-20T10:14:08;100887.38;;;11.61;82.36
24558;BME280;12726;49.148;8.582;2023-03-20T10:17:04;100892.59;;;11.83;80.93
24558;BME280;12726;49.148;8.582;2023-03-20T10:19:56;100886.66;;;12.45;77.41
24558;BME280;12726;49.148;8.582;2023-03-20T10:22:45;100890.53;;;12.62;76.37
24558;BME280;12726;49.148;8.582;2023-03-20T10:25:33;100888.00;;;13.12;74.01
24558;BME280;12726;49.148;8.582;2023-03-20T10:28:28;100894.22;;;13.75;70.98
24558;BME280;12726;49.148;8.582;2023-03-20T10:31:24;100893.34;;;13.81;69.40
24558;BME280;12726;49.148;8.582;2023-03-20T10:34:22;100897.31;;;13.54;70.38
24558;BME280;12726;49.148;8.582;2023-03-20T10:37:18;100898.72;;;13.63;69.96
24558;BME280;12726;49.148;8.582;2023-03-20T10:40:21;100893.13;;;13.83;68.29
24558;BME280;12726;49.148;8.582;2023-03-20T10:43:14;100886.66;;;13.84;68.96
24558;BME280;12726;49.148;8.582;2023-03-20T10:46:04;100875.41;;;14.96;66.20
24558;BME280;12726;49.148;8.582;2023-03-20T10:48:57;100881.88;;;16.01;60.92
24558;BME280;12726;49.148;8.582;2023-03-20T10:51:47;100881.00;;;16.48;58.56
24558;BME280;12726;49.148;8.582;2023-03-20T10:54:37;100875.34;;;16.37;59.00
24558;BME280;12726;49.148;8.582;2023-03-20T10:57:26;100866.63;;;15.65;57.98
24558;BME280;12726;49.148;8.582;2023-03-20T11:00:18;100862.41;;;16.04;59.84
24558;BME280;12726;49.148;8.582;2023-03-20T11:06:00;100870.00;;;16.94;56.44
24558;BME280;12726;49.148;8.582;2023-03-20T11:08:48;100871.38;;;16.17;58.27
24558;BME280;12726;49.148;8.582;2023-03-20T11:11:35;100868.81;;;15.45;56.58
24558;BME280;12726;49.148;8.582;2023-03-20T11:14:24;100867.31;;;14.60;59.63
24558;BME280;12726;49.148;8.582;2023-03-20T11:17:11;100862.28;;;14.45;60.21
24558;BME280;12726;49.148;8.582;2023-03-20T11:20:03;100857.88;;;15.10;59.31
24558;BME280;12726;49.148;8.582;2023-03-20T11:22:49;100856.84;;;15.88;57.54
24558;BME280;12726;49.148;8.582;2023-03-20T11:25:37;100850.13;;;15.55;56.88
24558;BME280;12726;49.148;8.582;2023-03-20T11:28:30;100857.34;;;15.20;58.27
24558;BME280;12726;49.148;8.582;2023-03-20T11:31:24;100861.31;;;14.58;60.66
24558;BME280;12726;49.148;8.582;2023-03-20T11:34:22;100851.72;;;14.37;61.36
24558;BME280;12726;49.148;8.582;2023-03-20T11:37:21;100845.22;;;14.44;61.61
24558;BME280;12726;49.148;8.582;2023-03-20T11:40:14;100837.53;;;14.60;61.28
24558;BME280;12726;49.148;8.582;2023-03-20T11:43:03;100836.53;;;15.14;59.16
24558;BME280;12726;49.148;8.582;2023-03-20T11:45:54;100839.88;;;15.27;56.28
24558;BME280;12726;49.148;8.582;2023-03-20T11:48:41;100831.00;;;15.09;57.86
24558;BME280;12726;49.148;8.582;2023-03-20T11:51:28;100831.59;;;14.81;58.99
24558;BME280;12726;49.148;8.582;2023-03-20T11:54:18;100828.75;;;14.76;58.41
24558;BME280;12726;49.148;8.582;2023-03-20T11:57:05;100832.31;;;14.58;59.57
24558;BME280;12726;49.148;8.582;2023-03-20T11:59:50;100821.25;;;14.60;59.68
24558;BME280;12726;49.148;8.582;2023-03-20T12:02:39;100823.06;;;14.66;57.66
24558;BME280;12726;49.148;8.582;2023-03-20T12:05:31;100815.72;;;14.55;60.07
24558;BME280;12726;49.148;8.582;2023-03-20T12:08:21;100815.53;;;14.68;56.36
24558;BME280;12726;49.148;8.582;2023-03-20T12:11:20;100820.22;;;14.42;54.41
24558;BME280;12726;49.148;8.582;2023-03-20T12:14:19;100803.19;;;14.35;54.38
24558;BME280;12726;49.148;8.582;2023-03-20T12:17:27;100803.09;;;14.12;54.50
24558;BME280;12726;49.148;8.582;2023-03-20T12:20:32;100798.88;;;13.98;55.45
24558;BME280;12726;49.148;8.582;2023-03-20T12:23:22;100802.47;;;13.92;56.02
24558;BME280;12726;49.148;8.582;2023-03-20T12:26:13;100811.09;;;14.00;55.48
24558;BME280;12726;49.148;8.582;2023-03-20T12:29:03;100799.91;;;14.33;55.27
24558;BME280;12726;49.148;8.582;2023-03-20T12:31:53;100796.47;;;14.74;54.31
24558;BME280;12726;49.148;8.582;2023-03-20T12:34:42;100797.66;;;15.32;52.79
24558;BME280;12726;49.148;8.582;2023-03-20T12:37:29;100793.81;;;15.86;52.74
24558;BME280;12726;49.148;8.582;2023-03-20T12:40:16;100799.31;;;16.14;51.42
24558;BME280;12726;49.148;8.582;2023-03-20T12:43:07;100783.81;;;15.75;51.29
24558;BME280;12726;49.148;8.582;2023-03-20T12:45:59;100783.44;;;15.71;51.49
24558;BME280;12726;49.148;8.582;2023-03-20T12:49:02;100774.09;;;15.90;51.99
24558;BME280;12726;49.148;8.582;2023-03-20T12:51:59;100775.56;;;15.70;50.83
24558;BME280;12726;49.148;8.582;2023-03-20T12:55:09;100764.63;;;15.35;50.97
24558;BME280;12726;49.148;8.582;2023-03-20T12:58:13;100766.78;;;15.44;50.64
24558;BME280;12726;49.148;8.582;2023-03-20T13:01:05;100762.19;;;15.56;51.40
24558;BME280;12726;49.148;8.582;2023-03-20T13:04:10;100761.56;;;15.19;51.40
24558;BME280;12726;49.148;8.582;2023-03-20T13:07:00;100754.28;;;15.20;52.39
24558;BME280;12726;49.148;8.582;2023-03-20T13:10:12;100767.25;;;15.41;50.30
24558;BME280;12726;49.148;8.582;2023-03-20T13:13:13;100755.69;;;15.34;49.84
24558;BME280;12726;49.148;8.582;2023-03-20T13:16:09;100747.06;;;15.49;50.90
24558;BME280;12726;49.148;8.582;2023-03-20T13:19:03;100748.97;;;15.48;51.17
24558;BME280;12726;49.148;8.582;2023-03-20T13:21:58;100749.31;;;15.40;50.76
24558;BME280;12726;49.148;8.582;2023-03-20T13:24:48;100737.03;;;15.38;51.05
24558;BME280;12726;49.148;8.582;2023-03-20T13:27:39;100736.81;;;15.51;49.93
24558;BME280;12726;49.148;8.582;2023-03-20T13:30:36;100743.31;;;15.73;50.25
24558;BME280;12726;49.148;8.582;2023-03-20T13:33:35;100735.19;;;15.61;49.60
24558;BME280;12726;49.148;8.582;2023-03-20T13:36:32;100728.81;;;15.68;50.32
24558;BME280;12726;49.148;8.582;2023-03-20T13:39:28;100732.56;;;15.20;50.69
24558;BME280;12726;49.148;8.582;2023-03-20T13:42:19;100725.22;;;14.97;51.38
24558;BME280;12726;49.148;8.582;2023-03-20T13:45:16;100729.72;;;15.15;51.94
24558;BME280;12726;49.148;8.582;2023-03-20T13:48:18;100726.53;;;15.18;51.32
24558;BME280;12726;49.148;8.582;2023-03-20T13:51:12;100721.94;;;15.30;50.17
24558;BME280;12726;49.148;8.582;2023-03-20T13:54:10;100714.50;;;14.91;51.67
24558;BME280;12726;49.148;8.582;2023-03-20T13:57:05;100719.75;;;14.74;51.73
24558;BME280;12726;49.148;8.582;2023-03-20T14:00:00;100714.22;;;14.80;51.07
24558;BME280;12726;49.148;8.582;2023-03-20T14:05:59;100708.38;;;14.54;51.78
24558;BME280;12726;49.148;8.582;2023-03-20T14:08:47;100701.50;;;14.81;52.23
24558;BME280;12726;49.148;8.582;2023-03-20T14:11:34;100699.72;;;14.75;51.17
24558;BME280;12726;49.148;8.582;2023-03-20T14:14:24;100700.91;;;14.79;51.52
24558;BME280;12726;49.148;8.582;2023-03-20T14:17:18;100693.94;;;14.71;51.09
24558;BME280;12726;49.148;8.582;2023-03-20T14:20:11;100701.22;;;14.59;51.41
24558;BME280;12726;49.148;8.582;2023-03-20T14:23:01;100694.63;;;14.37;50.73
24558;BME280;12726;49.148;8.582;2023-03-20T14:25:47;100696.25;;;14.26;50.54
24558;BME280;12726;49.148;8.582;2023-03-20T14:28:44;100687.84;;;14.16;51.33
24558;BME280;12726;49.148;8.582;2023-03-20T14:31:30;100687.97;;;14.21;51.50
24558;BME280;12726;49.148;8.582;2023-03-20T14:34:21;100691.97;;;14.19;52.44
24558;BME280;12726;49.148;8.582;2023-03-20T14:37:26;100694.47;;;14.20;51.73
24558;BME280;12726;49.148;8.582;2023-03-20T14:40:16;100697.31;;;14.25;52.83
24558;BME280;12726;49.148;8.582;2023-03-20T14:43:05;100698.75;;;14.28;53.10
24558;BME280;12726;49.148;8.582;2023-03-20T14:45:59;100695.19;;;14.27;51.63
24558;BME280;12726;49.148;8.582;2023-03-20T14:48:49;100696.25;;;14.26;51.75
24558;BME280;12726;49.148;8.582;2023-03-20T14:51:40;100690.84;;;14.26;51.79
24558;BME280;12726;49.148;8.582;2023-03-20T14:54:28;100701.09;;;14.36;52.22
24558;BME280;12726;49.148;8.582;2023-03-20T14:57:20;100693.31;;;14.28;52.35
24558;BME280;12726;49.148;8.582;2023-03-20T15:00:17;100694.22;;;14.22;52.35
24558;BME280;12726;49.148;8.582;2023-03-20T15:03:06;100700.19;;;14.12;52.40
24558;BME280;12726;49.148;8.582;2023-03-20T15:05:54;100690.72;;;14.03;53.56